SVA1116 OEJN-OEDF
Flight info
| Callsign | SVA1116 |
|---|---|
| Flight time | N/A |
| Altitude | 37000 |
| Route | EGREP B417 PATOR T532 DAW DCT MUSRI L604 UMENA |
| Aircraft | A21N/M-SDE2E3FGHIRWXY/LB1 |
Departure
| Time | 2026-05-05 11:19 |
|---|---|
| Airport | King Abdulaziz International Airport (OEJN) |
Arrival
| Time | N/A |
|---|---|
| Airport | King Fahd International Airport (OEDF) |
| Time | Latitude | Longitude | Altitude | Speed | Heading |
|---|---|---|---|---|---|
| 2026-05-05 10:56 | 21.66790 | 39.16996 | 33 ft | 0 kts | 66° |
| 2026-05-05 11:10 | 21.66781 | 39.16973 | 32 ft | 4 kts | 67° |
| 2026-05-05 11:10 | 21.66771 | 39.16946 | 29 ft | 4 kts | 75° |
| 2026-05-05 11:10 | 21.66766 | 39.16919 | 32 ft | 5 kts | 112° |
| 2026-05-05 11:11 | 21.66772 | 39.16906 | 28 ft | 0 kts | 161° |
| 2026-05-05 11:14 | 21.66766 | 39.16909 | 31 ft | 2 kts | 162° |
| 2026-05-05 11:14 | 21.66723 | 39.16924 | 33 ft | 11 kts | 162° |
| 2026-05-05 11:14 | 21.66626 | 39.16958 | 33 ft | 16 kts | 161° |
| 2026-05-05 11:14 | 21.66521 | 39.16995 | 33 ft | 16 kts | 162° |
| 2026-05-05 11:15 | 21.66417 | 39.17022 | 33 ft | 16 kts | 173° |
| 2026-05-05 11:15 | 21.66324 | 39.16998 | 33 ft | 13 kts | 214° |
| 2026-05-05 11:15 | 21.66281 | 39.16918 | 33 ft | 14 kts | 250° |
| 2026-05-05 11:15 | 21.66248 | 39.16817 | 32 ft | 15 kts | 250° |
| 2026-05-05 11:16 | 21.66214 | 39.16712 | 33 ft | 15 kts | 252° |
| 2026-05-05 11:16 | 21.66178 | 39.16612 | 33 ft | 13 kts | 249° |
| 2026-05-05 11:16 | 21.66152 | 39.16523 | 33 ft | 13 kts | 261° |
| 2026-05-05 11:16 | 21.66197 | 39.16456 | 33 ft | 12 kts | 338° |
| 2026-05-05 11:17 | 21.66211 | 39.16451 | 33 ft | 0 kts | 340° |
| 2026-05-05 11:19 | 21.66348 | 39.16396 | 34 ft | 53 kts | 340° |
| 2026-05-05 11:19 | 21.66915 | 39.16175 | 35 ft | 119 kts | 340° |
| 2026-05-05 11:19 | 21.67885 | 39.15796 | 90 ft | 175 kts | 339° |
| 2026-05-05 11:19 | 21.69074 | 39.15329 | 795 ft | 187 kts | 340° |
| 2026-05-05 11:20 | 21.70134 | 39.14892 | 1384 ft | 141 kts | 339° |
| 2026-05-05 11:20 | 21.70776 | 39.14682 | 1503 ft | 151 kts | 349° |